Shallotte, North Carolina
Current Conditions -  °F | °C
As of 6:55 AM on Thursday 23 Oct 2014 (Local Time) from KSUT Reporting Station
Clear Clear  
Wind Chill: 42°   Ceiling: Unl
Heat Index: 47°   Visibility: 10mi
Dew Point: 41°   Wind: 12mph
Humidity: 79%   Direction: 330°NNW
Pressure: 30"   Gusts: NA
Location:  33.97°N, 78.39°W
Report Text: KSUT 231055Z AUTO 33010KT 10SM CLR 09/05 A3000 RMK AO2 T00860052
Loading
Personal Weather Stations






























Interactive Weather Map
Tropical Storm Tracking
New forecast layout! Learn more

10-Day Weather Forecast

Advertisements
Track Severe Weather on mobile